Registrering Status Plassering
LN-FAW Operativ Ski - ENSI 

Søk
Kontakt informasjon

Follo flyklubb.
Postboks 226, N-1401 Ski
Epost: post@follo-flyklubb.no

Tel: 47 25 54 90
Du er her: Hovedside

Velkommen til Follo flyklubb

 

Follo flyklubb er en flyklubb med primærbase på Ski flyplass, og sekundærbase (vinterbase) på Rakkestad flyplass. Disse websidene er ment som en informasjonskanal til flyklubbens medlemmer, og andre som måtte være interessert i Follo flyklubbs virksomhet. Har du kommentarer eller bidrag du ønsker å dele med flyklubben, send oss en melding her.

Har noen av flyklubbens medlemmer forslag til turer, aktiviteter eller kurs- og infokvelder dere ønsker at vi deltar på eller avholder, så gi beskjed til styret via epost.

 

Før flyturen: Ta en sjekk på datoer i sertifikatene dine. Husk at det er forskjell på gyldighetsdato for PPL-sertifikatet og klasserettighet, som f.eks. SEP. Her er noen nyttige spørsmål, og litt om rettigheter her.

ENGM 170050Z 35003KT 310V040 CAVOK 15/06 Q1015
ENTO 170050Z AUTO 16008KT 9999 BKN080/// BKN100/// 17/16 Q1016
ENRY 170050Z AUTO 00000KT 9999NDV BKN120/// 15/13 Q1015
ENSN 090850Z 20010G22KT 150V240 CAVOK 07/03 Q1000
ENCN 170050Z AUTO 06006KT 9999 NCD 13/12 Q1015
ENZV 170050Z 14002KT CAVOK 14/12 Q1015
ENFL 170050Z AUTO 09006KT 9999NDV NCD 16/12 Q1015
ENFG 220850Z 19007KT CAVOK 06/M03 Q1014
ENNO 160550Z VRB02KT 9999 FEW011 16/13 Q1016
 

Leie av LN-FAW

Follo flyklubbs medlemmer har anledning til å leie LN-FAW, booking skjer via MyWebLog. Husk å loggføre turen etter turen.